createdAt,value
2023-05-07T00:00:16.654Z,8.05
2023-05-07T00:02:44.029Z,8.05
2023-05-07T00:05:11.238Z,8.06
2023-05-07T00:07:38.357Z,8.07
2023-05-07T00:10:07.749Z,8.09
2023-05-07T00:12:34.893Z,8.08
2023-05-07T00:15:03.951Z,8.08
2023-05-07T00:17:31.515Z,8.06
2023-05-07T00:19:58.498Z,8.03
2023-05-07T00:22:25.362Z,8.00
2023-05-07T00:24:52.249Z,7.97
2023-05-07T00:27:19.054Z,7.92
2023-05-07T00:29:46.037Z,7.89
2023-05-07T00:32:13.204Z,7.88
2023-05-07T00:34:40.716Z,7.82
2023-05-07T00:37:08.606Z,7.78
2023-05-07T00:39:35.926Z,7.75
2023-05-07T00:42:03.909Z,7.71
2023-05-07T00:44:30.770Z,7.66
2023-05-07T00:46:58.252Z,7.64
2023-05-07T00:49:38.497Z,7.62
2023-05-07T00:52:12.354Z,7.61
2023-05-07T00:54:39.249Z,7.59
2023-05-07T00:57:06.104Z,7.58
2023-05-07T00:59:33.312Z,7.55
2023-05-07T01:02:00.549Z,7.54
2023-05-07T01:04:27.608Z,7.54
2023-05-07T01:07:20.868Z,7.54
2023-05-07T01:09:47.807Z,7.53
2023-05-07T01:12:14.972Z,7.50
2023-05-07T01:14:41.836Z,7.48
2023-05-07T01:17:09.536Z,7.48
2023-05-07T01:19:37.389Z,7.48
2023-05-07T01:22:09.926Z,7.49
2023-05-07T01:24:45.033Z,7.48
2023-05-07T01:27:12.716Z,7.46
2023-05-07T01:29:39.939Z,7.45
2023-05-07T01:32:06.825Z,7.44
2023-05-07T01:34:34.051Z,7.44
2023-05-07T01:37:01.052Z,7.44
2023-05-07T01:39:29.467Z,7.42
2023-05-07T01:41:57.720Z,7.41
2023-05-07T01:44:24.885Z,7.39
2023-05-07T01:46:52.004Z,7.38
2023-05-07T01:49:19.024Z,7.38
2023-05-07T01:51:46.453Z,7.36
2023-05-07T01:54:13.412Z,7.34
2023-05-07T01:56:40.429Z,7.32
2023-05-07T01:59:07.431Z,7.31
2023-05-07T02:01:34.446Z,7.32
2023-05-07T02:04:01.673Z,7.31
2023-05-07T02:06:29.297Z,7.31
2023-05-07T02:09:00.995Z,7.31
2023-05-07T02:11:28.780Z,7.31
2023-05-07T02:13:55.641Z,7.32
2023-05-07T02:16:23.497Z,7.30
2023-05-07T02:18:51.196Z,7.30
2023-05-07T02:21:18.107Z,7.30
2023-05-07T02:23:45.022Z,7.27
2023-05-07T02:26:12.300Z,7.27
2023-05-07T02:28:39.448Z,7.26
2023-05-07T02:31:07.224Z,7.24
2023-05-07T02:33:36.058Z,7.22
2023-05-07T02:36:08.946Z,7.22
2023-05-07T02:38:37.087Z,7.20
2023-05-07T02:41:04.429Z,7.19
2023-05-07T02:43:31.628Z,7.19
2023-05-07T02:46:09.293Z,7.19
2023-05-07T02:48:39.570Z,7.16
2023-05-07T02:51:06.782Z,7.13
2023-05-07T02:53:34.267Z,7.12
2023-05-07T02:56:01.656Z,7.13
2023-05-07T02:58:28.672Z,7.13
2023-05-07T03:00:58.561Z,7.13
2023-05-07T03:03:39.168Z,7.13
2023-05-07T03:06:07.815Z,7.14
2023-05-07T03:08:34.763Z,7.15
2023-05-07T03:11:01.596Z,7.14
2023-05-07T03:13:28.693Z,7.12
2023-05-07T03:15:56.133Z,7.12
2023-05-07T03:18:23.275Z,7.10
2023-05-07T03:20:50.791Z,7.08
2023-05-07T03:23:18.271Z,7.04
2023-05-07T03:25:45.229Z,7.00
2023-05-07T03:28:12.143Z,6.99
2023-05-07T03:30:43.899Z,6.98
2023-05-07T03:33:10.912Z,6.98
2023-05-07T03:35:38.349Z,6.96
2023-05-07T03:38:05.797Z,6.95
2023-05-07T03:40:34.500Z,6.94
2023-05-07T03:43:01.984Z,6.94
2023-05-07T03:45:30.109Z,6.96
2023-05-07T03:48:05.321Z,7.00
2023-05-07T03:50:32.327Z,7.04
2023-05-07T03:52:59.698Z,7.08
2023-05-07T03:55:27.913Z,7.09
2023-05-07T03:57:57.717Z,7.07
2023-05-07T04:00:25.638Z,7.05
2023-05-07T04:02:52.536Z,7.08
2023-05-07T04:05:24.956Z,7.11
2023-05-07T04:07:55.108Z,7.14
2023-05-07T04:10:26.415Z,7.15
2023-05-07T04:12:54.975Z,7.14
2023-05-07T04:15:22.253Z,7.15
2023-05-07T04:17:49.242Z,7.16
2023-05-07T04:20:17.684Z,7.16
2023-05-07T04:22:46.834Z,7.15
2023-05-07T04:25:13.705Z,7.16
2023-05-07T04:27:40.812Z,7.18
2023-05-07T04:30:08.791Z,7.20
2023-05-07T04:32:39.098Z,7.24
2023-05-07T04:35:07.006Z,7.25
2023-05-07T04:37:34.436Z,7.27
2023-05-07T04:40:01.609Z,7.29
2023-05-07T04:42:29.297Z,7.30
2023-05-07T04:44:56.337Z,7.34
2023-05-07T04:47:23.768Z,7.39
2023-05-07T04:50:16.299Z,7.44
2023-05-07T04:52:43.558Z,7.46
2023-05-07T04:55:10.760Z,7.47
2023-05-07T04:57:41.662Z,7.49
2023-05-07T05:00:12.917Z,7.51
2023-05-07T05:02:40.565Z,7.51
2023-05-07T05:05:08.504Z,7.49
2023-05-07T05:07:36.019Z,7.46
2023-05-07T05:10:04.278Z,7.43
2023-05-07T05:12:31.853Z,7.39
2023-05-07T05:14:59.279Z,7.37
2023-05-07T05:17:26.210Z,7.37
2023-05-07T05:19:53.093Z,7.38
2023-05-07T05:24:49.505Z,7.42
2023-05-07T05:27:16.460Z,7.49
2023-05-07T05:29:43.493Z,7.57
2023-05-07T05:32:11.134Z,7.65
2023-05-07T05:34:41.534Z,7.73
2023-05-07T05:37:08.471Z,7.79
2023-05-07T05:39:35.358Z,7.88
2023-05-07T05:42:02.511Z,7.97
2023-05-07T05:44:29.503Z,8.04
2023-05-07T05:46:58.835Z,8.03
2023-05-07T05:49:26.342Z,8.07
2023-05-07T05:51:53.446Z,8.14
2023-05-07T05:54:21.329Z,8.25
2023-05-07T05:56:48.501Z,8.36
2023-05-07T05:59:15.956Z,8.46
2023-05-07T06:01:46.367Z,8.58
2023-05-07T06:04:13.453Z,8.67
2023-05-07T06:06:40.358Z,8.74
2023-05-07T06:09:07.353Z,8.81
2023-05-07T06:11:42.256Z,8.91
2023-05-07T06:14:09.771Z,9.01
2023-05-07T06:16:39.265Z,9.11
2023-05-07T06:19:07.071Z,9.21
2023-05-07T06:21:34.534Z,9.23
2023-05-07T06:24:01.650Z,9.27
2023-05-07T06:26:28.860Z,9.30
2023-05-07T06:28:55.798Z,9.34
2023-05-07T06:31:23.752Z,9.38
2023-05-07T06:33:56.433Z,9.39
2023-05-07T06:36:24.320Z,9.34
2023-05-07T06:38:52.021Z,9.29
2023-05-07T06:41:18.990Z,9.30
2023-05-07T06:43:45.916Z,9.31
2023-05-07T06:46:33.329Z,9.30
2023-05-07T06:49:00.401Z,9.32
2023-05-07T06:51:28.047Z,9.41
2023-05-07T06:53:55.616Z,9.53
2023-05-07T06:56:23.968Z,9.64
2023-05-07T06:58:50.991Z,9.76
2023-05-07T07:01:19.025Z,9.85
2023-05-07T07:03:46.122Z,9.89
2023-05-07T07:06:12.998Z,10.00
2023-05-07T07:08:39.911Z,10.09
2023-05-07T07:11:07.494Z,10.15
2023-05-07T07:13:34.713Z,10.25
2023-05-07T07:16:01.890Z,10.35
2023-05-07T07:18:29.342Z,10.45
2023-05-07T07:20:56.451Z,10.60
2023-05-07T07:23:23.451Z,10.71
2023-05-07T07:25:50.434Z,10.71
2023-05-07T07:28:18.449Z,10.76
2023-05-07T07:30:45.709Z,10.78
2023-05-07T07:33:13.224Z,10.79
2023-05-07T07:35:40.478Z,10.80
2023-05-07T07:38:07.577Z,10.88
2023-05-07T07:40:37.693Z,10.97
2023-05-07T07:43:06.110Z,11.08
2023-05-07T07:45:33.261Z,11.10
2023-05-07T07:48:01.167Z,11.03
2023-05-07T07:50:40.549Z,10.97
2023-05-07T07:53:11.170Z,10.98
2023-05-07T07:55:41.804Z,11.08
2023-05-07T07:58:09.300Z,11.15
2023-05-07T08:00:37.488Z,11.24
2023-05-07T08:03:04.817Z,11.33
2023-05-07T08:05:35.552Z,11.35
2023-05-07T08:08:03.022Z,11.31
2023-05-07T08:10:35.820Z,11.28
2023-05-07T08:13:07.407Z,11.17
2023-05-07T08:15:36.041Z,11.05
2023-05-07T08:18:03.895Z,11.01
2023-05-07T08:20:31.155Z,11.04
2023-05-07T08:22:58.559Z,11.06
2023-05-07T08:25:27.046Z,11.02
2023-05-07T08:27:54.517Z,11.06
2023-05-07T08:30:22.311Z,11.09
2023-05-07T08:32:49.421Z,11.06
2023-05-07T08:35:16.600Z,11.08
2023-05-07T08:37:43.634Z,11.12
2023-05-07T08:40:13.618Z,11.17
2023-05-07T08:42:41.933Z,11.22
2023-05-07T08:45:11.087Z,11.24
2023-05-07T08:47:46.613Z,11.27
2023-05-07T08:50:14.519Z,11.33
2023-05-07T08:52:42.436Z,11.48
2023-05-07T08:55:10.591Z,11.65
2023-05-07T08:57:40.295Z,11.71
2023-05-07T09:00:09.330Z,11.69
2023-05-07T09:02:37.485Z,11.68
2023-05-07T09:05:05.714Z,11.63
2023-05-07T09:07:33.082Z,11.56
2023-05-07T09:10:03.047Z,11.54
2023-05-07T09:12:30.218Z,11.63
2023-05-07T09:15:00.416Z,11.70
2023-05-07T09:17:28.104Z,11.64
2023-05-07T09:19:55.028Z,11.58
2023-05-07T09:22:22.207Z,11.63
2023-05-07T09:24:57.209Z,11.61
2023-05-07T09:27:26.222Z,11.57
2023-05-07T09:29:53.752Z,11.52
2023-05-07T09:32:20.986Z,11.52
2023-05-07T09:34:48.414Z,11.51
2023-05-07T09:37:15.677Z,11.52
2023-05-07T09:39:47.080Z,11.56
2023-05-07T09:42:18.181Z,11.59
2023-05-07T09:44:45.847Z,11.56
2023-05-07T09:47:19.756Z,11.58
2023-05-07T09:49:50.431Z,11.60
2023-05-07T09:52:20.045Z,11.69
2023-05-07T09:54:51.029Z,11.72
2023-05-07T09:57:19.195Z,11.74
2023-05-07T09:59:47.773Z,11.72
2023-05-07T10:02:16.437Z,11.75
2023-05-07T10:04:47.833Z,11.78
2023-05-07T10:07:15.816Z,11.83
2023-05-07T10:09:44.897Z,11.89
2023-05-07T10:12:18.740Z,12.00
2023-05-07T10:14:46.614Z,12.12
2023-05-07T10:17:13.607Z,12.18
2023-05-07T10:19:42.214Z,12.25
2023-05-07T10:22:09.608Z,12.32
2023-05-07T10:24:40.766Z,12.38
2023-05-07T10:27:13.600Z,12.41
2023-05-07T10:30:22.946Z,12.43
2023-05-07T10:32:52.008Z,12.56
2023-05-07T10:35:28.368Z,12.66
2023-05-07T10:37:55.250Z,12.79
2023-05-07T10:40:22.496Z,12.94
2023-05-07T10:43:00.579Z,13.03
2023-05-07T10:45:29.463Z,12.96
2023-05-07T10:50:51.422Z,12.74
2023-05-07T10:53:18.664Z,12.71
2023-05-07T10:56:20.156Z,12.63
2023-05-07T10:58:54.758Z,12.56
2023-05-07T11:01:54.230Z,12.55
2023-05-07T11:04:30.895Z,12.56
2023-05-07T11:07:31.452Z,12.62
2023-05-07T11:10:05.218Z,12.70
2023-05-07T11:12:53.210Z,12.65
2023-05-07T11:15:42.898Z,12.58
2023-05-07T11:18:18.461Z,12.46
2023-05-07T11:20:51.054Z,12.38
2023-05-07T11:23:36.295Z,12.32
2023-05-07T11:26:12.445Z,12.27
2023-05-07T11:28:41.342Z,12.24
2023-05-07T11:31:08.759Z,12.22
2023-05-07T11:33:36.695Z,12.19
2023-05-07T11:36:04.881Z,12.15
2023-05-07T11:38:40.505Z,12.22
2023-05-07T11:41:08.628Z,12.31
2023-05-07T11:43:37.055Z,12.38
2023-05-07T11:46:09.694Z,12.43
2023-05-07T11:48:36.790Z,12.46
2023-05-07T11:51:05.197Z,12.46
2023-05-07T11:53:42.647Z,12.43
2023-05-07T11:56:13.952Z,12.46
2023-05-07T11:58:43.907Z,12.52
2023-05-07T12:01:12.078Z,12.57
2023-05-07T12:03:43.793Z,12.59
2023-05-07T12:06:15.003Z,12.56
2023-05-07T12:08:42.680Z,12.60
2023-05-07T12:11:12.522Z,12.54
2023-05-07T12:13:39.729Z,12.47
2023-05-07T12:16:07.253Z,12.45
2023-05-07T12:18:35.152Z,12.51
2023-05-07T12:21:02.698Z,12.62
2023-05-07T12:23:30.132Z,12.71
2023-05-07T12:25:57.101Z,12.78
2023-05-07T12:28:24.110Z,12.83
2023-05-07T12:30:51.751Z,12.84
2023-05-07T12:33:26.171Z,12.75
2023-05-07T12:35:55.349Z,12.68
2023-05-07T12:38:22.520Z,12.72
2023-05-07T12:40:54.881Z,12.83
2023-05-07T12:43:23.405Z,12.91
2023-05-07T12:45:51.465Z,12.94
2023-05-07T12:48:19.071Z,12.91
2023-05-07T12:50:46.084Z,12.80
2023-05-07T12:53:14.449Z,12.73
2023-05-07T12:55:43.058Z,12.73
2023-05-07T12:58:10.126Z,12.69
2023-05-07T13:00:40.158Z,12.64
2023-05-07T13:03:07.316Z,12.56
2023-05-07T13:05:34.754Z,12.46
2023-05-07T13:08:01.709Z,12.39
2023-05-07T13:10:29.124Z,12.37
2023-05-07T13:12:56.160Z,12.35
2023-05-07T13:15:23.292Z,12.34
2023-05-07T13:17:50.272Z,12.34
2023-05-07T13:20:18.524Z,12.32
2023-05-07T13:22:45.572Z,12.27
2023-05-07T13:25:12.848Z,12.23
2023-05-07T13:27:40.339Z,12.18
2023-05-07T13:30:11.627Z,12.18
2023-05-07T13:32:38.676Z,12.21
2023-05-07T13:35:06.283Z,12.24
2023-05-07T13:37:33.243Z,12.26
2023-05-07T13:40:00.373Z,12.27
2023-05-07T13:42:27.505Z,12.23
2023-05-07T13:44:54.426Z,12.18
2023-05-07T13:47:22.633Z,12.12
2023-05-07T13:49:51.082Z,12.07
2023-05-07T13:52:18.271Z,12.02
2023-05-07T13:54:45.127Z,12.03
2023-05-07T13:57:12.068Z,12.02
2023-05-07T13:59:39.087Z,12.02
2023-05-07T14:02:06.065Z,12.05
2023-05-07T14:04:32.961Z,12.08
2023-05-07T14:06:59.897Z,12.12
2023-05-07T14:09:26.827Z,12.16
2023-05-07T14:11:53.805Z,12.20
2023-05-07T14:14:20.750Z,12.22
2023-05-07T14:16:49.409Z,12.21
2023-05-07T14:19:17.889Z,12.18
2023-05-07T14:21:44.798Z,12.16
2023-05-07T14:24:11.696Z,12.16
2023-05-07T14:26:38.635Z,12.15
2023-05-07T14:29:05.604Z,12.13
2023-05-07T14:31:32.581Z,12.10
2023-05-07T14:34:00.117Z,12.10
2023-05-07T14:36:31.344Z,12.10
2023-05-07T14:39:00.466Z,12.09
2023-05-07T14:41:27.545Z,12.05
2023-05-07T14:43:54.541Z,12.02
2023-05-07T14:46:21.600Z,12.01
2023-05-07T14:48:48.531Z,12.00
2023-05-07T14:51:15.965Z,11.98
2023-05-07T14:53:42.930Z,11.99
2023-05-07T14:56:09.957Z,11.98
2023-05-07T14:58:37.150Z,11.97
2023-05-07T15:01:04.595Z,11.96
2023-05-07T15:03:31.593Z,11.95
2023-05-07T15:05:58.506Z,11.92
2023-05-07T15:08:25.455Z,11.90
2023-05-07T15:10:52.451Z,11.89
2023-05-07T15:13:19.485Z,11.87
2023-05-07T15:15:46.955Z,11.81
2023-05-07T15:18:14.244Z,11.76
2023-05-07T15:20:41.652Z,11.73
2023-05-07T15:23:13.358Z,11.72
2023-05-07T15:25:41.236Z,11.71
2023-05-07T15:28:08.147Z,11.70
2023-05-07T15:30:35.121Z,11.67
2023-05-07T15:33:03.596Z,11.66
2023-05-07T15:35:31.134Z,11.64
2023-05-07T15:37:58.666Z,11.63
2023-05-07T15:40:25.727Z,11.61
2023-05-07T15:42:55.584Z,11.58
2023-05-07T15:45:22.867Z,11.55
2023-05-07T15:47:49.996Z,11.54
2023-05-07T15:50:17.028Z,11.55
2023-05-07T15:52:46.086Z,11.56
2023-05-07T15:55:13.349Z,11.55
2023-05-07T15:57:40.666Z,11.55
2023-05-07T16:00:10.001Z,11.54
2023-05-07T16:02:40.445Z,11.55
2023-05-07T16:05:10.873Z,11.56
2023-05-07T16:07:38.176Z,11.56
2023-05-07T16:10:05.805Z,11.56
2023-05-07T16:12:32.792Z,11.59
2023-05-07T16:14:59.758Z,11.63
2023-05-07T16:17:26.993Z,11.70
2023-05-07T16:19:54.123Z,11.80
2023-05-07T16:22:22.128Z,11.88
2023-05-07T16:24:49.077Z,11.92
2023-05-07T16:27:15.984Z,11.94
2023-05-07T16:29:42.899Z,11.95
2023-05-07T16:32:09.937Z,11.97
2023-05-07T16:34:36.893Z,11.94
2023-05-07T16:37:04.505Z,11.89
2023-05-07T16:39:31.585Z,11.84
2023-05-07T16:41:58.598Z,11.81
2023-05-07T16:44:25.798Z,11.75
2023-05-07T16:46:53.406Z,11.70
2023-05-07T16:49:21.250Z,11.65
2023-05-07T16:51:48.206Z,11.58
2023-05-07T16:54:15.141Z,11.54
2023-05-07T16:56:42.993Z,11.47
2023-05-07T16:59:10.025Z,11.41
2023-05-07T17:01:40.141Z,11.37
2023-05-07T17:04:07.174Z,11.34
2023-05-07T17:06:34.352Z,11.28
2023-05-07T17:09:01.377Z,11.22
2023-05-07T17:11:31.332Z,11.16
2023-05-07T17:13:58.376Z,11.12
2023-05-07T17:16:25.769Z,11.06
2023-05-07T17:18:52.767Z,10.99
2023-05-07T17:21:19.797Z,10.90
2023-05-07T17:23:46.965Z,10.83
2023-05-07T17:26:17.193Z,10.76
2023-05-07T17:28:44.143Z,10.69
2023-05-07T17:31:11.357Z,10.65
2023-05-07T17:33:38.446Z,10.60
2023-05-07T17:36:05.957Z,10.54
2023-05-07T17:38:32.916Z,10.51
2023-05-07T17:40:59.797Z,10.48
2023-05-07T17:43:26.765Z,10.44
2023-05-07T17:45:53.753Z,10.40
2023-05-07T17:48:20.726Z,10.37
2023-05-07T17:50:47.657Z,10.34
2023-05-07T17:53:14.625Z,10.32
2023-05-07T17:55:42.632Z,10.29
2023-05-07T17:58:09.952Z,10.25
2023-05-07T18:00:36.884Z,10.20
2023-05-07T18:03:04.288Z,10.17
2023-05-07T18:05:31.463Z,10.15
2023-05-07T18:07:58.317Z,10.14
2023-05-07T18:10:25.414Z,10.12
2023-05-07T18:12:52.414Z,10.10
2023-05-07T18:15:19.596Z,10.09
2023-05-07T18:17:46.655Z,10.08
2023-05-07T18:20:13.989Z,10.08
2023-05-07T18:22:41.465Z,10.07
2023-05-07T18:25:08.576Z,10.06
2023-05-07T18:27:35.560Z,10.04
2023-05-07T18:30:03.055Z,10.03
2023-05-07T18:32:30.367Z,10.03
2023-05-07T18:34:57.261Z,10.02
2023-05-07T18:37:26.122Z,10.00
2023-05-07T18:39:53.815Z,10.00
2023-05-07T18:42:20.998Z,10.00
2023-05-07T18:44:47.948Z,9.98
2023-05-07T18:47:14.858Z,9.96
2023-05-07T18:49:41.772Z,9.94
2023-05-07T18:52:11.760Z,9.95
2023-05-07T18:54:38.660Z,9.94
2023-05-07T18:57:05.545Z,9.92
2023-05-07T18:59:32.424Z,9.90
2023-05-07T19:01:59.237Z,9.88
2023-05-07T19:04:26.239Z,9.87
2023-05-07T19:06:57.257Z,9.88
2023-05-07T19:09:24.340Z,9.88
2023-05-07T19:11:51.255Z,9.86
2023-05-07T19:14:18.219Z,9.85
2023-05-07T19:16:45.116Z,9.85
2023-05-07T19:19:11.992Z,9.84
2023-05-07T19:21:39.028Z,9.85
2023-05-07T19:24:06.410Z,9.84
2023-05-07T19:26:33.368Z,9.83
2023-05-07T19:31:30.693Z,9.81
2023-05-07T19:33:57.678Z,9.79
2023-05-07T19:36:24.609Z,9.78
2023-05-07T19:38:53.396Z,9.76
2023-05-07T19:41:22.112Z,9.74
2023-05-07T19:43:49.036Z,9.73
2023-05-07T19:46:18.886Z,9.73
2023-05-07T19:48:46.265Z,9.72
2023-05-07T19:51:13.413Z,9.73
2023-05-07T19:53:42.459Z,9.72
2023-05-07T19:56:10.275Z,9.69
2023-05-07T19:58:37.308Z,9.69
2023-05-07T20:01:04.709Z,9.68
2023-05-07T20:03:35.020Z,9.67
2023-05-07T20:06:02.378Z,9.68
2023-05-07T20:08:29.309Z,9.66
2023-05-07T20:10:57.541Z,9.65
2023-05-07T20:13:24.482Z,9.65
2023-05-07T20:15:51.430Z,9.66
2023-05-07T20:18:18.437Z,9.65
2023-05-07T20:20:45.461Z,9.63
2023-05-07T20:23:12.407Z,9.62
2023-05-07T20:25:41.674Z,9.62
2023-05-07T20:28:08.502Z,9.63
2023-05-07T20:30:35.532Z,9.62
2023-05-07T20:33:04.057Z,9.62
2023-05-07T20:35:32.337Z,9.62
2023-05-07T20:37:59.249Z,9.61
2023-05-07T20:40:27.068Z,9.61
2023-05-07T20:42:54.064Z,9.62
2023-05-07T20:45:20.944Z,9.60
2023-05-07T20:47:47.992Z,9.59
2023-05-07T20:50:15.161Z,9.58
2023-05-07T20:52:42.408Z,9.59
2023-05-07T20:55:09.610Z,9.59
2023-05-07T20:57:36.621Z,9.59
2023-05-07T21:00:04.190Z,9.58
2023-05-07T21:02:31.162Z,9.58
2023-05-07T21:05:01.229Z,9.57
2023-05-07T21:07:28.057Z,9.57
2023-05-07T21:09:54.973Z,9.57
2023-05-07T21:12:22.328Z,9.58
2023-05-07T21:14:49.566Z,9.60
2023-05-07T21:17:16.710Z,9.60
2023-05-07T21:19:43.615Z,9.59
2023-05-07T21:22:10.573Z,9.58
2023-05-07T21:24:37.544Z,9.58
2023-05-07T21:27:07.846Z,9.57
2023-05-07T21:29:34.599Z,9.58
2023-05-07T21:32:03.642Z,9.56
2023-05-07T21:34:30.766Z,9.54
2023-05-07T21:36:58.259Z,9.52
2023-05-07T21:39:25.311Z,9.50
2023-05-07T21:41:52.137Z,9.49
2023-05-07T21:44:18.955Z,9.47
2023-05-07T21:46:45.895Z,9.44
2023-05-07T21:49:12.963Z,9.43
2023-05-07T21:51:40.102Z,9.41
2023-05-07T21:54:07.136Z,9.39
2023-05-07T21:56:34.397Z,9.37
2023-05-07T21:59:01.363Z,9.36
2023-05-07T22:01:28.372Z,9.35
2023-05-07T22:03:55.766Z,9.33
2023-05-07T22:06:22.849Z,9.32
2023-05-07T22:08:49.992Z,9.30
2023-05-07T22:11:17.122Z,9.29
2023-05-07T22:13:44.033Z,9.27
2023-05-07T22:16:11.065Z,9.25
2023-05-07T22:18:38.152Z,9.23
2023-05-07T22:21:05.331Z,9.19
2023-05-07T22:23:32.198Z,9.18
2023-05-07T22:25:59.212Z,9.17
2023-05-07T22:28:26.170Z,9.16
2023-05-07T22:30:53.027Z,9.13
2023-05-07T22:33:20.065Z,9.12
2023-05-07T22:35:46.975Z,9.12
2023-05-07T22:38:13.880Z,9.12
2023-05-07T22:40:40.831Z,9.13
2023-05-07T22:43:07.707Z,9.12
2023-05-07T22:45:34.646Z,9.11
2023-05-07T22:48:01.567Z,9.10
2023-05-07T22:50:28.479Z,9.08
2023-05-07T22:52:55.417Z,9.06
2023-05-07T22:55:22.241Z,9.04
2023-05-07T22:57:49.144Z,9.02
2023-05-07T23:00:16.288Z,9.02
2023-05-07T23:02:43.264Z,8.99
2023-05-07T23:05:10.116Z,8.97
2023-05-07T23:07:37.519Z,8.96
2023-05-07T23:10:05.341Z,8.94
2023-05-07T23:12:32.177Z,8.92
2023-05-07T23:14:59.069Z,8.91
2023-05-07T23:17:25.930Z,8.90
2023-05-07T23:19:52.820Z,8.89
2023-05-07T23:22:19.644Z,8.88
2023-05-07T23:24:46.460Z,8.87
2023-05-07T23:27:13.365Z,8.85
2023-05-07T23:29:41.316Z,8.82
2023-05-07T23:32:08.215Z,8.82
2023-05-07T23:34:35.098Z,8.80
2023-05-07T23:37:01.978Z,8.79
2023-05-07T23:39:28.783Z,8.79
2023-05-07T23:41:55.698Z,8.78
2023-05-07T23:44:22.572Z,8.76
2023-05-07T23:46:49.570Z,8.74
2023-05-07T23:49:16.578Z,8.74
2023-05-07T23:51:43.513Z,8.72
2023-05-07T23:54:10.595Z,8.70
2023-05-07T23:56:37.482Z,8.70
2023-05-07T23:59:04.310Z,8.69
